Weather observations for the past three days for
Nebraska City, Nebraska City Municipal Airport
Metric (Imperial)
Date Time (cdt) Wind (kph) Vis. (km) Weather Sky Cond. Temperature (ºC) Relative Humidity Wind Chill (°C) Heat Index (°C) Pressure Precipitation (cm)
Air Dwpt 6 hour altimeter (cm) sea level (mb) 1 hr 3 hr 6 hr
Max. Min.
02 05:55 SW 9 16.09 Mostly Cloudy BKN120 22.6 17.3 72% 76 0.0
02 05:35 SW 11 16.09 Partly Cloudy SCT120 22.2 17.1 73% 76 0.0
02 05:15 SW 9 16.09 Fair CLR 22.5 17 71% 75.97 0.0
02 04:55 SW 11 16.09 Fair CLR 23 16.9 69% 76 0.0
02 04:35 SW 15 16.09 Fair CLR 23.1 16.7 67% 75.97 0.0
02 04:15 SW 15 16.09 Fair CLR 23.5 16.7 66% 75.97 0.0
02 03:55 SW 11 16.09 Fair CLR 23.5 16.6 65% 76 0.0
02 03:35 SW 13 16.09 Partly Cloudy SCT120 24.1 16.5 63% 25 76 0.0
02 03:15 SW 15 16.09 Partly Cloudy SCT120 23.7 16.6 65% 75.97 0.0
02 02:55 SW 13 16.09 Partly Cloudy SCT120 22.8 17 70% 75.97 0.0
02 02:35 SW 13 16.09 Mostly Cloudy BKN120 23.2 17.1 69% 75.97 0.0
02 02:15 SW 13 16.09 Partly Cloudy SCT120 23.7 17.1 67% 75.97 0.0
02 01:55 SW 15 16.09 Fair CLR 24.2 17.1 65% 25 75.97 0.0
02 01:35 S 17 16.09 Fair CLR 24.5 17.2 64% 26 75.95 0.0
02 01:15 S 17 16.09 Fair CLR 24.7 17.2 63% 26 75.95 0.0
02 00:55 S 17 16.09 Fair CLR 25 17.3 32.7 25 62% 26 75.95 0.0
02 00:35 S 15 16.09 Fair CLR 25.1 17.5 63% 26 75.95 0.0
02 00:15 S 15 16.09 Fair CLR 25.5 17.5 61% 26 75.95 0.0
01 23:55 S 17 16.09 Fair CLR 25.4 17.6 62% 26 75.97 0.0
01 23:35 S 15 16.09 Fair CLR 25.7 17.6 61% 27 75.95 0.0
01 23:15 S 13 16.09 Fair CLR 26.2 17.6 59% 27 75.95 0.0
01 22:55 S 15 16.09 Fair CLR 26.6 17.5 57% 27 75.95 0.0
01 22:35 S 17 16.09 Fair CLR 27.1 17.6 56% 28 75.95 0.0
01 22:15 S 19 16.09 Fair CLR 27.5 17.7 55% 28 75.95 0.0
01 21:55 S 17 16.09 Fair CLR 27.8 17.7 54% 29 75.92 0.0
01 21:35 S 17 16.09 Fair CLR 28.1 18 54% 29 75.92 0.0
01 21:15 S 17 16.09 Fair CLR 28.2 18.5 56% 29 75.9 0.0
01 20:55 S 17 16.09 Fair CLR 28.5 19 56% 30 75.87 0.0
01 20:35 S 17 16.09 Fair CLR 28.7 19.4 57% 30 75.84 0.0
01 19:55 S 15 16.09 Fair CLR 29.6 20 56% 31 75.84 0.0
01 19:35 S 15 16.09 Fair CLR 30.5 19.8 53% 32 75.84 0.0
01 19:15 S 15 16.09 Fair CLR 32 20 49% 34 75.87 0.0
01 18:55 S 13 16.09 Fair CLR 32.9 20 36.6 32.9 47% 35 75.87 0.0
01 18:35 S 15 16.09 Fair CLR 33.8 19.9 44% 36 75.87 0.0
01 18:15 S 13 16.09 Fair CLR 34.5 20.1 43% 37 75.87 0.0
01 17:55 SW 17 G 26 16.09 Fair CLR 35.1 19.1 39% 37 75.9 0.0
01 17:35 SW 17 G 26 16.09 Fair CLR 35.6 18.5 36% 37 75.9 0.0
01 17:15 SW 19 16.09 Fair CLR 35.8 18.6 36% 38 75.9 0.0
01 16:55 SW 20 G 28 16.09 Fair CLR 36.2 18.1 34% 38 75.92 0.0
01 16:35 SW 24 G 39 16.09 Fair CLR 36.2 17.2 32% 37 75.92 0.0
01 16:15 SW 26 G 35 16.09 Fair CLR 36.4 17.8 33% 38 75.92 0.0
01 15:55 SW 22 G 37 16.09 Fair CLR 36.6 18.4 34% 38 75.92 0.0
01 15:35 SW 28 G 33 16.09 Fair CLR 36.4 18 34% 38 75.92 0.0
01 15:15 SW 24 G 33 16.09 Fair CLR 0 0 0% 75.95 0.0
01 14:55 SW 28 16.09 Fair CLR 35.8 18.6 36% 38 75.95 0.0
01 14:35 SW 19 16.09 Fair CLR 35.7 19.1 38% 38 75.97 0.0
01 14:15 SW 22 G 37 16.09 Fair CLR 35.3 18.5 37% 37 76 0.0
01 13:55 S 20 G 30 16.09 Fair CLR 34.8 19.6 41% 37 76 0.0
01 13:35 SW 22 G 31 16.09 Fair CLR 34.4 19.4 41% 36 76.02 0.0
01 13:15 S 20 16.09 Fair CLR 34.1 20 44% 37 76.05 0.0
01 12:55 S 19 16.09 Fair CLR 33.7 20.1 33.7 21.2 45% 36 76.05 0.0
01 12:35 S 17 16.09 Fair CLR 33.2 19.5 44% 35 76.07 0.0
01 12:15 S 15 16.09 Fair CLR 32.7 19.2 45% 34 76.07 0.0
01 11:55 SW 13 16.09 Fair CLR 32.2 20 48% 34 76.07 0.0
01 11:35 SW 13 16.09 Fair CLR 31.6 19.6 49% 33 76.1 0.0
01 11:15 SW 15 16.09 Fair CLR 31 19.5 50% 33 76.1 0.0
01 10:55 SW 13 16.09 Fair CLR 30.2 19.6 53% 32 76.1 0.0
01 10:35 SW 15 16.09 Fair CLR 29.7 18.9 52% 31 76.07 0.0
01 10:15 SW 17 16.09 Fair CLR 29.2 18.7 53% 30 76.07 0.0
01 09:55 SW 13 16.09 Fair CLR 28.6 18.6 55% 30 76.1 0.0
01 09:35 SW 15 16.09 Fair CLR 27.7 19 59% 29 76.07 0.0
01 09:15 SW 15 16.09 Fair CLR 26.8 18.5 60% 28 76.07 0.0
01 08:55 S 15 16.09 Fair CLR 25.9 18.5 64% 27 76.1 0.0
01 08:35 SW 13 16.09 Fair CLR 25 18 65% 26 76.1 0.0
01 08:15 S 13 16.09 Fair CLR 23.9 18 70% 25 76.1 0.0
01 07:55 S 11 16.09 Fair CLR 23 17.7 72% 76.1 0.0
01 07:35 S 13 16.09 Fair CLR 22 17.6 76% 76.07 0.0
01 07:15 S 11 16.09 Fair CLR 21.3 17.5 79% 76.07 0.0
01 06:55 S 11 16.09 Fair CLR 21.5 17.4 25.1 21.5 78% 76.05 0.0
01 06:35 S 13 16.09 Fair CLR 22 17.3 75% 76.05 0.0
01 06:15 SW 13 16.09 Fair CLR 21.8 17.5 77% 76.05 0.0
01 05:55 S 11 16.09 Partly Cloudy SCT110 22 17.7 77% 76.05 0.0
01 05:35 SW 9 16.09 Partly Cloudy SCT110 22.4 17.7 75% 76.07 0.0
01 05:15 SW 11 16.09 Fair CLR 23.1 17.5 71% 76.07 0.0
01 04:55 SW 9 16.09 Fair CLR 23.6 17.5 69% 76.07 0.0
01 04:35 SW 9 16.09 Fair CLR 23.7 17.7 69% 76.07 0.0
01 04:15 SW 11 16.09 Fair CLR 24.5 17.6 66% 26 76.07 0.0
01 03:55 SW 15 16.09 Fair CLR 25 17.6 64% 26 76.05 0.0
01 03:35 SW 17 16.09 Fair CLR 24.1 18.3 70% 25 76.05 0.0
01 03:15 S 9 16.09 Fair CLR 22.9 19.2 80% 76.05 0.0
01 02:55 S 7 16.09 Fair CLR 22.8 19.5 82% 76.05 0.0
01 02:35 S 7 16.09 Fair CLR 23.4 20.1 82% 76.05 0.0
01 02:15 S 7 16.09 Fair CLR 24.2 20.1 78% 25 76.05 0.0
01 01:55 S 7 16.09 Fair CLR 24.1 20.7 81% 24 76.05 0.0
01 01:35 S 6 16.09 Fair CLR 24 20.8 82% 24 76.05 0.0
01 01:15 S 7 16.09 Fair CLR 24.3 21 82% 25 76.07 0.0
01 00:55 S 7 16.09 Fair CLR 25 21 32.7 25 79% 26 76.07 0.0
01 00:35 S 6 16.09 Fair CLR 25.2 20.8 77% 26 76.07 0.0
01 00:15 SE 6 16.09 Fair CLR 25.4 21 77% 27 76.1 0.0
31 23:55 Calm 16.09 Fair CLR 25.7 21 75% 27 76.07 0.0
31 23:35 Calm 16.09 Fair CLR 26.5 21 72% 28 76.07 0.0
31 23:15 Calm 16.09 Fair CLR 26.4 21.1 73% 28 76.07 0.0
31 22:55 Calm 16.09 Fair CLR 27.1 20.9 69% 29 76.07 0.0
31 22:35 Calm 11.27 Fair CLR 27.3 20.8 68% 29 76.05 0.0
31 22:15 Calm 11.27 Fair CLR 27.6 21 67% 30 76.05 0.0
31 21:55 Calm 16.09 Fair CLR 27.5 20.8 67% 29 76.05 0.0
31 21:35 SE 9 16.09 Fair CLR 28 20.4 63% 30 76.05 0.0
31 21:15 SE 7 16.09 Fair CLR 28.5 20.3 61% 30 76.02 0.0
31 20:55 SE 6 16.09 Fair CLR 28.2 22 69% 31 76.02 0.0
31 20:35 Calm 16.09 Fair CLR 28.3 23 73% 32 76 0.0
31 20:15 Calm 16.09 Fair CLR 29.3 21.9 64% 32 76 0.0
31 19:55 Calm 16.09 Fair CLR 30.3 21.9 61% 34 76 0.0
31 19:35 Calm 16.09 Fair CLR 31.2 21.8 57% 35 76.02 0.0
31 19:15 Calm 16.09 Fair CLR 32 21.6 54% 35 76.02 0.0
31 18:35 Calm 16.09 Fair CLR 33 21.2 50% 36 76.02 0.0
31 18:15 Calm 16.09 Fair CLR 33.2 20.9 48% 36 76.02 0.0
31 17:55 SW 7 16.09 Fair CLR 33.2 21.2 49% 36 76.02 0.0
31 17:35 SW 9 16.09 Fair CLR 33.7 20.8 47% 37 76.02 0.0
31 17:15 SW 11 16.09 Fair CLR 32.9 20.6 48% 36 76.05 0.0
31 16:55 SW 11 16.09 Fair CLR 33.6 20.9 47% 37 76.05 0.0
31 16:35 SW 11 16.09 Fair CLR 34 20.7 46% 37 76.05 0.0
31 16:15 SW 11 16.09 Fair CLR 34 21 47% 37 76.05 0.0
31 15:55 SW 11 16.09 Fair CLR 33.9 20.5 45% 37 76.05 0.0
31 15:35 SW 13 16.09 Fair CLR 33.9 20.3 45% 37 76.05 0.0
31 15:15 SW 13 16.09 Fair CLR 33.7 21.9 50% 38 76.07 0.0
31 14:55 SW 9 16.09 Fair CLR 33.3 21.1 49% 37 76.07 0.0
31 14:35 SW 9 16.09 Fair CLR 32.9 20.6 48% 36 76.07 0.0
31 14:15 SW 9 16.09 Fair CLR 32.2 21.3 53% 35 76.1 0.0
31 13:55 W 11 16.09 Fair CLR 31.6 20.2 51% 34 76.1 0.0
31 13:35 SW 11 16.09 Fair CLR 31.3 22.1 58% 35 76.1 0.0
31 13:15 W 7 16.09 Fair CLR 30.9 20.9 55% 34 76.1 0.0
31 12:55 SW 7 16.09 Fair CLR 30.3 21.6 30.6 22.9 60% 33 76.1 0.0
31 12:35 W 9 16.09 Fair CLR 30.1 20.1 55% 32 76.1 0.0
31 12:15 NW 6 16.09 Fair CLR 29.8 20.5 57% 32 76.1 0.0
31 11:55 NW 6 16.09 Fair CLR 29.9 21.5 61% 33 76.07 0.0
31 11:35 NE 6 16.09 Fair CLR 29.6 20.4 58% 32 76.05 0.0
31 11:15 W 13 16.09 Fair CLR 28.9 21.4 64% 31 76.07 0.0
31 10:55 NW 13 16.09 Fair CLR 29.1 21.4 63% 32 76.07 0.0
31 10:35 W 7 16.09 Fair CLR 28.6 22.2 68% 32 76 0.0
31 10:15 N 7 16.09 Fair CLR 27.4 22.2 73% 30 75.92 0.0
31 09:55 N 6 16.09 Fair CLR 27.5 21.5 70% 30 75.95 0.0
31 09:35 NW 11 16.09 Fair CLR 27.4 21.6 71% 30 75.97 0.0
31 09:15 N 6 16.09 Fair CLR 26.1 21.4 75% 28 75.97 0.0
31 08:55 W 11 16.09 Fair CLR 25.5 20.6 74% 27 76 0.0
31 08:35 W 6 16.09 Fair CLR 25.4 20 72% 26 76 0.0
31 08:15 W 11 16.09 Fair CLR 24.5 19.1 72% 25 76 0.0
31 07:55 SW 9 16.09 Fair CLR 24 18.8 73% 25 75.97 0.0
31 07:35 SW 15 16.09 Fair CLR 24.1 18.5 71% 25 75.92 0.0
31 07:15 SW 17 16.09 Fair CLR 24 18.2 70% 25 75.92 0.0
31 06:55 SW 17 16.09 Thunderstorm in Vicinity CLR 23 18.7 25.4 23 77% 75.87 0.0
31 06:35 SW 13 16.09 Fair CLR 23 18.7 77% 75.87 0.0
31 06:15 S 15 16.09 Fair CLR 23.2 18.9 77% 75.87 0.0
31 05:55 SW 11 16.09 Light Rain SCT060 SCT070 SCT085 23.3 18.9 76% 75.87 0.0
31 05:35 SW 11 16.09 Fair CLR 23.5 18.5 74% 75.84 0.0
31 05:15 SW 13 16.09 Fair CLR 23.9 18.2 71% 25 75.84 0.0
31 04:55 SW 11 16.09 Fair CLR 23.8 18.3 71% 75.84 0.0
31 04:35 SW 9 16.09 Fair CLR 23.1 18.5 75% 75.82 0.0
31 04:15 SW 9 16.09 Fair CLR 23.4 18.2 73% 75.82 0.0
31 03:55 SW 11 16.09 Fair CLR 23.5 18.3 73% 75.82 0.0
31 03:35 SW 11 16.09 Fair CLR 23.4 18.3 73% 75.82 0.0
31 03:15 SW 11 16.09 Fair CLR 23.3 18.5 75% 75.79 0.0
31 02:55 SW 9 16.09 Fair CLR 24.4 18.2 68% 25 75.79 0.0
31 02:35 SW 17 16.09 Fair CLR 24.7 18.2 67% 26 75.79 0.0
31 02:15 SW 20 16.09 Fair CLR 25.3 18.2 65% 26 75.79 0.0
31 01:55 SW 22 16.09 Fair CLR 25.3 18.3 65% 26 75.79 0.0
31 01:35 S 22 16.09 Fair CLR 25 18.6 68% 26 75.79 0.0
31 01:15 SW 13 16.09 Fair CLR 24.5 19.2 72% 25 75.79 0.0
31 00:55 S 11 16.09 Fair CLR 24.1 19.9 33.5 24 77% 25 75.77 0.0
31 00:35 S 9 16.09 Fair CLR 24.5 20.9 80% 25 75.77 0.0
31 00:15 S 9 16.09 Fair CLR 24.2 21.1 83% 24 75.77 0.0
30 23:55 S 9 16.09 Fair CLR 24.8 21.3 81% 26 75.77 0.0
30 23:35 S 9 16.09 Fair CLR 25.6 21.5 78% 27 75.77 0.0
30 23:15 SW 6 16.09 Fair CLR 26 21.5 76% 28 75.77 0.0
30 22:55 SW 6 16.09 Fair CLR 26.5 21.7 75% 28 75.77 0.0
30 22:35 S 7 16.09 Fair CLR 27.5 21.6 70% 30 75.74 0.0
30 22:15 Calm 16.09 Fair CLR 27.4 22 72% 30 75.74 0.0
30 21:55 Calm 16.09 Fair CLR 28.8 22.3 68% 32 75.74 0.0
30 21:35 Calm 16.09 Fair CLR 28.9 22.7 69% 32 75.74 0.0
30 21:15 Calm 16.09 Fair CLR 28.2 23.6 76% 32 75.72 0.0
30 20:55 Calm 16.09 Fair CLR 29.3 23.4 71% 34 75.72 0.0
30 20:35 S 6 16.09 Fair CLR 29.9 23.5 69% 34 75.69 0.0
30 20:15 SE 6 16.09 Fair CLR 30.5 23.5 66% 35 75.69 0.0
30 19:55 SE 6 16.09 Fair CLR 31.3 23.5 63% 36 75.69 0.0
30 19:35 Calm 16.09 Fair CLR 32.1 23.6 61% 38 75.69 0.0
30 19:15 SE 6 16.09 Fair CLR 32.5 25 65% 40 75.69 0.0
30 18:55 Calm 16.09 Fair CLR 33.5 24.7 34.6 31.8 60% 41 75.69 0.0
30 18:35 Calm 16.09 Fair CLR 34 24.2 57% 41 75.69 0.0
30 18:15 Calm 16.09 Fair CLR 34.3 23.7 54% 41 75.67 0.0
30 17:55 Calm 16.09 Fair CLR 33.7 23.9 57% 40 75.67 0.0
30 17:35 Calm 16.09 Fair CLR 33.5 24 58% 40 75.67 0.0
30 17:15 SW 7 16.09 Fair CLR 33.7 23 54% 39 75.67 0.0
30 16:55 S 11 16.09 Fair CLR 33.1 22.7 54% 38 75.67 0.0
30 16:35 SW 13 16.09 Fair CLR 34 21.2 47% 37 75.67 0.0
30 16:15 SW 22 16.09 Fair CLR 34.5 21.4 46% 38 75.69 0.0
30 15:55 SW 17 16.09 Fair CLR 34.2 21.2 47% 38 75.72 0.0
30 15:35 SW 22 G 31 16.09 Fair CLR 34.1 21.3 47% 38 75.72 0.0
30 15:15 SW 17 16.09 Fair CLR 33 21.6 51% 37 75.74 0.0
30 14:55 SW 15 16.09 Fair CLR 33 21.7 51% 37 75.74 0.0
30 14:35 SW 20 G 28 16.09 Fair CLR 32.8 20.6 49% 36 75.77 0.0
30 14:15 SW 17 16.09 Fair CLR 33.1 20.5 48% 36 75.74 0.0
30 13:55 SW 22 G 31 16.09 Fair CLR 33 19.5 45% 35 75.77 0.0
30 13:35 SW 20 G 35 16.09 Fair CLR 33.1 20 46% 35 75.77 0.0
30 13:15 SW 26 G 31 16.09 Fair CLR 32.3 19.8 48% 34 75.79 0.0
30 12:55 SW 20 G 26 16.09 Fair CLR 32.4 20.7 32.4 22.7 50% 35 75.79 0.0
30 12:35 SW 24 G 33 16.09 Fair CLR 31.2 19.6 50% 33 75.79 0.0
30 12:15 S 20 16.09 Fair CLR 31.5 21 54% 34 75.82 0.0
30 11:55 S 15 16.09 Fair CLR 30.6 20.5 55% 33 75.82 0.0
30 11:35 S 20 16.09 Fair CLR 30 20.1 55% 32 75.82 0.0
30 11:15 S 13 16.09 Fair CLR 29.2 19.4 56% 31 75.82 0.0
30 10:55 SW 17 16.09 Fair CLR 29.2 19.1 55% 31 75.82 0.0
30 10:35 SW 19 16.09 Fair CLR 28.7 19.7 58% 30 75.82 0.0
30 10:15 SW 9 16.09 Fair CLR 27.5 19.2 61% 29 75.82 0.0
30 09:55 S 11 16.09 Thunderstorm in Vicinity CLR 27.6 19.5 61% 29 75.79 0.0
30 09:35 S 11 16.09 Fair CLR 26.5 19.5 65% 28 75.79 0.0
30 09:15 S 13 16.09 Fair CLR 24.5 19.8 75% 25 75.77 0.0
30 08:55 S 11 16.09 Fair CLR 24.6 19.5 73% 25 75.77 0.0
30 08:35 S 9 16.09 Fair CLR 24.5 19.1 72% 25 75.79 0.0
30 08:15 S 9 16.09 Fair CLR 24.4 18.9 72% 25 75.79 0.0
30 07:55 S 7 16.09 Fair CLR 23.9 18.9 74% 25 75.82 0.0
30 07:35 S 15 16.09 Fair CLR 22.8 19.2 80% 75.82 0.0
30 07:15 SE 6 16.09 Fair CLR 24 18 69% 25 75.82 0.0
30 06:55 Calm 16.09 Fair CLR 23.1 18.7 27.2 22.9 76% 75.84 0.0
30 06:35 Calm 16.09 Thunderstorm in Vicinity SCT120 23.6 18.8 75% 75.84 0.0
30 06:15 Calm 16.09 Light Rain SCT095 BKN120 25.1 18 65% 26 75.79 0.0
Date Time (cdt) Wind (kph) Vis. (km) Weather Sky Cond. Air Dwpt Max. Min. Relative Humidity Wind Chill (°C) Heat Index (°C) altimeter (cm) sea level (mb) 1 hr 3 hr 6 hr
6 hour
Temperature (ºC) Pressure Precipitation (cm)